sensor_id;sensor_type;location;lat;lon;timestamp;temperature;humidity
73133;DHT22;61320;52.008;4.530;2023-08-06T00:00:06;17.08;87.52
73133;DHT22;61320;52.008;4.530;2023-08-06T00:02:32;17.08;87.42
73133;DHT22;61320;52.008;4.530;2023-08-06T00:04:57;17.10;87.25
73133;DHT22;61320;52.008;4.530;2023-08-06T00:07:23;17.10;87.40
73133;DHT22;61320;52.008;4.530;2023-08-06T00:09:48;17.10;87.21
73133;DHT22;61320;52.008;4.530;2023-08-06T00:12:14;17.11;87.15
73133;DHT22;61320;52.008;4.530;2023-08-06T00:14:40;17.12;87.39
73133;DHT22;61320;52.008;4.530;2023-08-06T00:17:06;17.12;87.21
73133;DHT22;61320;52.008;4.530;2023-08-06T00:19:32;17.14;87.35
73133;DHT22;61320;52.008;4.530;2023-08-06T00:21:57;17.14;87.32
73133;DHT22;61320;52.008;4.530;2023-08-06T00:24:23;17.12;87.29
73133;DHT22;61320;52.008;4.530;2023-08-06T00:26:48;17.12;87.42
73133;DHT22;61320;52.008;4.530;2023-08-06T00:29:14;17.11;87.28
73133;DHT22;61320;52.008;4.530;2023-08-06T00:31:39;17.15;87.31
73133;DHT22;61320;52.008;4.530;2023-08-06T00:34:05;17.15;87.32
73133;DHT22;61320;52.008;4.530;2023-08-06T00:36:30;17.15;87.18
73133;DHT22;61320;52.008;4.530;2023-08-06T00:38:56;17.14;87.33
73133;DHT22;61320;52.008;4.530;2023-08-06T00:41:21;17.14;87.35
73133;DHT22;61320;52.008;4.530;2023-08-06T00:43:47;17.15;87.30
73133;DHT22;61320;52.008;4.530;2023-08-06T00:46:13;17.17;87.28
73133;DHT22;61320;52.008;4.530;2023-08-06T00:48:40;17.15;87.35
73133;DHT22;61320;52.008;4.530;2023-08-06T00:51:06;17.18;87.35
73133;DHT22;61320;52.008;4.530;2023-08-06T00:53:32;17.15;87.18
73133;DHT22;61320;52.008;4.530;2023-08-06T00:55:58;17.15;87.42
73133;DHT22;61320;52.008;4.530;2023-08-06T00:58:24;17.15;87.30
73133;DHT22;61320;52.008;4.530;2023-08-06T01:00:50;17.15;87.32
73133;DHT22;61320;52.008;4.530;2023-08-06T01:03:15;17.17;87.28
73133;DHT22;61320;52.008;4.530;2023-08-06T01:05:41;17.14;87.28
73133;DHT22;61320;52.008;4.530;2023-08-06T01:08:48;17.15;87.28
73133;DHT22;61320;52.008;4.530;2023-08-06T01:11:37;17.12;87.06
73133;DHT22;61320;52.008;4.530;2023-08-06T01:14:18;17.08;87.15
73133;DHT22;61320;52.008;4.530;2023-08-06T01:16:49;17.10;87.23
73133;DHT22;61320;52.008;4.530;2023-08-06T01:19:19;17.12;87.39
73133;DHT22;61320;52.008;4.530;2023-08-06T01:21:45;17.12;87.25
73133;DHT22;61320;52.008;4.530;2023-08-06T01:24:11;17.17;87.34
73133;DHT22;61320;52.008;4.530;2023-08-06T01:26:44;17.17;87.32
73133;DHT22;61320;52.008;4.530;2023-08-06T01:31:48;17.15;87.16
73133;DHT22;61320;52.008;4.530;2023-08-06T01:34:23;17.15;87.27
73133;DHT22;61320;52.008;4.530;2023-08-06T01:36:50;17.15;87.21
73133;DHT22;61320;52.008;4.530;2023-08-06T01:39:16;17.12;87.22
73133;DHT22;61320;52.008;4.530;2023-08-06T01:41:41;17.14;87.31
73133;DHT22;61320;52.008;4.530;2023-08-06T01:44:07;17.17;87.31
73133;DHT22;61320;52.008;4.530;2023-08-06T01:46:32;17.17;87.35
73133;DHT22;61320;52.008;4.530;2023-08-06T01:48:58;17.17;87.34
73133;DHT22;61320;52.008;4.530;2023-08-06T01:51:23;17.15;87.26
73133;DHT22;61320;52.008;4.530;2023-08-06T01:53:49;17.17;87.38
73133;DHT22;61320;52.008;4.530;2023-08-06T01:56:14;17.18;87.50
73133;DHT22;61320;52.008;4.530;2023-08-06T01:58:40;17.18;87.23
73133;DHT22;61320;52.008;4.530;2023-08-06T02:01:05;17.17;87.32
73133;DHT22;61320;52.008;4.530;2023-08-06T02:03:31;17.15;87.24
73133;DHT22;61320;52.008;4.530;2023-08-06T02:05:57;17.17;87.28
73133;DHT22;61320;52.008;4.530;2023-08-06T02:08:22;17.17;87.17
73133;DHT22;61320;52.008;4.530;2023-08-06T02:10:48;17.14;87.29
73133;DHT22;61320;52.008;4.530;2023-08-06T02:13:14;17.14;87.35
73133;DHT22;61320;52.008;4.530;2023-08-06T02:15:45;17.14;87.31
73133;DHT22;61320;52.008;4.530;2023-08-06T02:18:14;17.14;87.34
73133;DHT22;61320;52.008;4.530;2023-08-06T02:20:40;17.17;87.47
73133;DHT22;61320;52.008;4.530;2023-08-06T02:23:06;17.20;87.50
73133;DHT22;61320;52.008;4.530;2023-08-06T02:25:32;17.20;87.57
73133;DHT22;61320;52.008;4.530;2023-08-06T02:27:57;17.22;87.57
73133;DHT22;61320;52.008;4.530;2023-08-06T02:30:23;17.21;87.46
73133;DHT22;61320;52.008;4.530;2023-08-06T02:32:48;17.22;87.57
73133;DHT22;61320;52.008;4.530;2023-08-06T02:35:13;17.22;87.48
73133;DHT22;61320;52.008;4.530;2023-08-06T02:40:05;17.24;87.51
73133;DHT22;61320;52.008;4.530;2023-08-06T02:42:30;17.25;87.39
73133;DHT22;61320;52.008;4.530;2023-08-06T02:44:56;17.24;87.39
73133;DHT22;61320;52.008;4.530;2023-08-06T02:47:21;17.24;87.45
73133;DHT22;61320;52.008;4.530;2023-08-06T02:49:47;17.24;87.45
73133;DHT22;61320;52.008;4.530;2023-08-06T02:52:12;17.25;87.33
73133;DHT22;61320;52.008;4.530;2023-08-06T02:54:38;17.21;87.32
73133;DHT22;61320;52.008;4.530;2023-08-06T02:57:04;17.21;87.42
73133;DHT22;61320;52.008;4.530;2023-08-06T02:59:31;17.21;87.44
73133;DHT22;61320;52.008;4.530;2023-08-06T03:01:56;17.21;87.52
73133;DHT22;61320;52.008;4.530;2023-08-06T03:04:22;17.21;87.35
73133;DHT22;61320;52.008;4.530;2023-08-06T03:06:49;17.21;87.19
73133;DHT22;61320;52.008;4.530;2023-08-06T03:09:15;17.17;87.18
73133;DHT22;61320;52.008;4.530;2023-08-06T03:11:40;17.07;86.87
73133;DHT22;61320;52.008;4.530;2023-08-06T03:14:06;17.00;86.93
73133;DHT22;61320;52.008;4.530;2023-08-06T03:16:31;16.95;87.12
73133;DHT22;61320;52.008;4.530;2023-08-06T03:18:57;16.90;87.30
73133;DHT22;61320;52.008;4.530;2023-08-06T03:21:22;16.88;87.39
73133;DHT22;61320;52.008;4.530;2023-08-06T03:23:48;16.88;87.39
73133;DHT22;61320;52.008;4.530;2023-08-06T03:26:14;16.85;87.40
73133;DHT22;61320;52.008;4.530;2023-08-06T03:28:39;16.85;87.10
73133;DHT22;61320;52.008;4.530;2023-08-06T03:31:05;16.80;87.26
73133;DHT22;61320;52.008;4.530;2023-08-06T03:33:30;16.79;87.54
73133;DHT22;61320;52.008;4.530;2023-08-06T03:35:56;16.79;87.35
73133;DHT22;61320;52.008;4.530;2023-08-06T03:38:22;16.74;87.53
73133;DHT22;61320;52.008;4.530;2023-08-06T03:40:48;16.76;87.43
73133;DHT22;61320;52.008;4.530;2023-08-06T03:43:14;16.73;87.70
73133;DHT22;61320;52.008;4.530;2023-08-06T03:45:40;16.70;87.84
73133;DHT22;61320;52.008;4.530;2023-08-06T03:48:06;16.67;87.78
73133;DHT22;61320;52.008;4.530;2023-08-06T03:50:32;16.67;88.22
73133;DHT22;61320;52.008;4.530;2023-08-06T03:52:57;16.59;87.87
73133;DHT22;61320;52.008;4.530;2023-08-06T03:55:23;16.56;87.98
73133;DHT22;61320;52.008;4.530;2023-08-06T03:57:48;16.55;88.26
73133;DHT22;61320;52.008;4.530;2023-08-06T04:02:39;16.42;87.92
73133;DHT22;61320;52.008;4.530;2023-08-06T04:05:05;16.36;87.98
73133;DHT22;61320;52.008;4.530;2023-08-06T04:07:30;16.32;88.05
73133;DHT22;61320;52.008;4.530;2023-08-06T04:10:02;16.19;87.79
73133;DHT22;61320;52.008;4.530;2023-08-06T04:12:28;16.12;87.96
73133;DHT22;61320;52.008;4.530;2023-08-06T04:14:55;16.08;87.98
73133;DHT22;61320;52.008;4.530;2023-08-06T04:17:21;16.04;88.22
73133;DHT22;61320;52.008;4.530;2023-08-06T04:22:17;15.83;87.93
73133;DHT22;61320;52.008;4.530;2023-08-06T04:24:43;15.80;88.08
73133;DHT22;61320;52.008;4.530;2023-08-06T04:29:35;15.67;88.17
73133;DHT22;61320;52.008;4.530;2023-08-06T04:32:01;15.66;88.44
73133;DHT22;61320;52.008;4.530;2023-08-06T04:34:26;15.61;88.29
73133;DHT22;61320;52.008;4.530;2023-08-06T04:36:52;15.60;88.44
73133;DHT22;61320;52.008;4.530;2023-08-06T04:39:17;15.56;88.31
73133;DHT22;61320;52.008;4.530;2023-08-06T04:41:42;15.57;88.42
73133;DHT22;61320;52.008;4.530;2023-08-06T04:44:08;15.56;88.62
73133;DHT22;61320;52.008;4.530;2023-08-06T04:46:34;15.58;88.57
73133;DHT22;61320;52.008;4.530;2023-08-06T04:48:59;15.60;88.54
73133;DHT22;61320;52.008;4.530;2023-08-06T04:51:24;15.64;88.48
73133;DHT22;61320;52.008;4.530;2023-08-06T04:53:50;15.63;88.46
73133;DHT22;61320;52.008;4.530;2023-08-06T04:56:15;15.61;88.33
73133;DHT22;61320;52.008;4.530;2023-08-06T04:58:41;15.64;88.29
73133;DHT22;61320;52.008;4.530;2023-08-06T05:01:06;15.63;88.32
73133;DHT22;61320;52.008;4.530;2023-08-06T05:03:32;15.66;88.32
73133;DHT22;61320;52.008;4.530;2023-08-06T05:05:57;15.68;88.31
73133;DHT22;61320;52.008;4.530;2023-08-06T05:10:48;15.71;88.23
73133;DHT22;61320;52.008;4.530;2023-08-06T05:13:13;15.73;88.05
73133;DHT22;61320;52.008;4.530;2023-08-06T05:15:39;15.78;88.19
73133;DHT22;61320;52.008;4.530;2023-08-06T05:18:07;15.78;88.16
73133;DHT22;61320;52.008;4.530;2023-08-06T05:20:36;15.78;88.25
73133;DHT22;61320;52.008;4.530;2023-08-06T05:23:01;15.81;88.16
73133;DHT22;61320;52.008;4.530;2023-08-06T05:27:52;15.88;88.15
73133;DHT22;61320;52.008;4.530;2023-08-06T05:30:18;15.88;88.36
73133;DHT22;61320;52.008;4.530;2023-08-06T05:32:44;15.93;88.36
73133;DHT22;61320;52.008;4.530;2023-08-06T05:35:09;15.95;88.16
73133;DHT22;61320;52.008;4.530;2023-08-06T05:37:34;16.01;88.16
73133;DHT22;61320;52.008;4.530;2023-08-06T05:40:00;16.04;88.16
73133;DHT22;61320;52.008;4.530;2023-08-06T05:42:26;16.08;88.36
73133;DHT22;61320;52.008;4.530;2023-08-06T05:44:52;16.11;88.17
73133;DHT22;61320;52.008;4.530;2023-08-06T05:47:17;16.08;87.94
73133;DHT22;61320;52.008;4.530;2023-08-06T05:49:45;16.08;87.97
73133;DHT22;61320;52.008;4.530;2023-08-06T05:52:10;16.06;88.22
73133;DHT22;61320;52.008;4.530;2023-08-06T05:54:36;16.06;88.10
73133;DHT22;61320;52.008;4.530;2023-08-06T05:57:01;16.06;88.08
73133;DHT22;61320;52.008;4.530;2023-08-06T05:59:27;16.11;88.21
73133;DHT22;61320;52.008;4.530;2023-08-06T06:01:52;16.14;88.24
73133;DHT22;61320;52.008;4.530;2023-08-06T06:04:17;16.14;88.20
73133;DHT22;61320;52.008;4.530;2023-08-06T06:06:43;16.18;88.18
73133;DHT22;61320;52.008;4.530;2023-08-06T06:09:10;16.19;88.17
73133;DHT22;61320;52.008;4.530;2023-08-06T06:11:35;16.22;88.27
73133;DHT22;61320;52.008;4.530;2023-08-06T06:14:01;16.29;88.36
73133;DHT22;61320;52.008;4.530;2023-08-06T06:16:26;16.29;88.13
73133;DHT22;61320;52.008;4.530;2023-08-06T06:18:52;16.29;88.29
73133;DHT22;61320;52.008;4.530;2023-08-06T06:21:17;16.33;88.23
73133;DHT22;61320;52.008;4.530;2023-08-06T06:23:43;16.39;88.25
73133;DHT22;61320;52.008;4.530;2023-08-06T06:26:08;16.46;88.39
73133;DHT22;61320;52.008;4.530;2023-08-06T06:28:35;16.49;88.20
73133;DHT22;61320;52.008;4.530;2023-08-06T06:31:01;16.55;88.18
73133;DHT22;61320;52.008;4.530;2023-08-06T06:33:27;16.62;88.45
73133;DHT22;61320;52.008;4.530;2023-08-06T06:35:52;16.64;88.14
73133;DHT22;61320;52.008;4.530;2023-08-06T06:38:18;16.70;87.98
73133;DHT22;61320;52.008;4.530;2023-08-06T06:40:43;16.66;87.90
73133;DHT22;61320;52.008;4.530;2023-08-06T06:43:08;16.69;88.15
73133;DHT22;61320;52.008;4.530;2023-08-06T06:45:34;16.76;88.07
73133;DHT22;61320;52.008;4.530;2023-08-06T06:47:59;16.80;88.11
73133;DHT22;61320;52.008;4.530;2023-08-06T06:50:25;16.80;88.04
73133;DHT22;61320;52.008;4.530;2023-08-06T06:52:51;16.88;88.15
73133;DHT22;61320;52.008;4.530;2023-08-06T06:55:17;16.94;88.19
73133;DHT22;61320;52.008;4.530;2023-08-06T06:57:43;16.99;88.13
73133;DHT22;61320;52.008;4.530;2023-08-06T07:00:09;16.99;87.77
73133;DHT22;61320;52.008;4.530;2023-08-06T07:02:35;16.91;87.87
73133;DHT22;61320;52.008;4.530;2023-08-06T07:05:00;16.91;88.08
73133;DHT22;61320;52.008;4.530;2023-08-06T07:07:26;16.99;88.07
73133;DHT22;61320;52.008;4.530;2023-08-06T07:09:51;16.97;87.86
73133;DHT22;61320;52.008;4.530;2023-08-06T07:12:16;16.99;87.90
73133;DHT22;61320;52.008;4.530;2023-08-06T07:14:42;16.93;87.86
73133;DHT22;61320;52.008;4.530;2023-08-06T07:17:07;16.93;87.94
73133;DHT22;61320;52.008;4.530;2023-08-06T07:19:33;16.90;87.92
73133;DHT22;61320;52.008;4.530;2023-08-06T07:21:58;16.91;87.96
73133;DHT22;61320;52.008;4.530;2023-08-06T07:24:24;16.87;87.91
73133;DHT22;61320;52.008;4.530;2023-08-06T07:26:49;16.85;88.12
73133;DHT22;61320;52.008;4.530;2023-08-06T07:29:15;16.87;88.07
73133;DHT22;61320;52.008;4.530;2023-08-06T07:31:45;16.85;88.15
73133;DHT22;61320;52.008;4.530;2023-08-06T07:34:10;16.88;88.25
73133;DHT22;61320;52.008;4.530;2023-08-06T07:36:36;16.83;87.81
73133;DHT22;61320;52.008;4.530;2023-08-06T07:39:01;16.80;87.87
73133;DHT22;61320;52.008;4.530;2023-08-06T07:41:27;16.80;88.07
73133;DHT22;61320;52.008;4.530;2023-08-06T07:43:52;16.81;88.13
73133;DHT22;61320;52.008;4.530;2023-08-06T07:55:59;16.95;88.30
73133;DHT22;61320;52.008;4.530;2023-08-06T08:00:54;17.04;88.03
73133;DHT22;61320;52.008;4.530;2023-08-06T08:03:20;17.08;87.99
73133;DHT22;61320;52.008;4.530;2023-08-06T08:05:45;17.15;88.17
73133;DHT22;61320;52.008;4.530;2023-08-06T08:08:11;17.24;87.93
73133;DHT22;61320;52.008;4.530;2023-08-06T08:10:37;17.24;88.03
73133;DHT22;61320;52.008;4.530;2023-08-06T08:13:04;17.27;87.89
73133;DHT22;61320;52.008;4.530;2023-08-06T08:15:31;17.24;87.61
73133;DHT22;61320;52.008;4.530;2023-08-06T08:17:57;17.18;87.31
73133;DHT22;61320;52.008;4.530;2023-08-06T08:20:23;17.14;87.63
73133;DHT22;61320;52.008;4.530;2023-08-06T08:22:49;17.14;87.18
73133;DHT22;61320;52.008;4.530;2023-08-06T08:25:16;17.11;87.43
73133;DHT22;61320;52.008;4.530;2023-08-06T08:27:42;17.14;87.85
73133;DHT22;61320;52.008;4.530;2023-08-06T08:30:07;17.20;88.02
73133;DHT22;61320;52.008;4.530;2023-08-06T08:32:33;17.24;87.81
73133;DHT22;61320;52.008;4.530;2023-08-06T08:34:58;17.28;87.88
73133;DHT22;61320;52.008;4.530;2023-08-06T08:37:24;17.31;87.49
73133;DHT22;61320;52.008;4.530;2023-08-06T08:39:50;17.28;87.26
73133;DHT22;61320;52.008;4.530;2023-08-06T08:42:16;17.22;87.17
73133;DHT22;61320;52.008;4.530;2023-08-06T08:44:42;17.17;87.28
73133;DHT22;61320;52.008;4.530;2023-08-06T08:47:09;17.20;87.85
73133;DHT22;61320;52.008;4.530;2023-08-06T08:49:36;17.25;87.74
73133;DHT22;61320;52.008;4.530;2023-08-06T08:52:03;17.27;87.36
73133;DHT22;61320;52.008;4.530;2023-08-06T08:54:33;17.25;87.46
73133;DHT22;61320;52.008;4.530;2023-08-06T08:56:59;17.31;87.49
73133;DHT22;61320;52.008;4.530;2023-08-06T08:59:26;17.31;87.37
73133;DHT22;61320;52.008;4.530;2023-08-06T09:01:53;17.31;87.20
73133;DHT22;61320;52.008;4.530;2023-08-06T09:04:20;17.35;87.00
73133;DHT22;61320;52.008;4.530;2023-08-06T09:06:50;17.28;87.05
73133;DHT22;61320;52.008;4.530;2023-08-06T09:09:26;17.30;87.24
73133;DHT22;61320;52.008;4.530;2023-08-06T09:12:00;17.31;87.15
73133;DHT22;61320;52.008;4.530;2023-08-06T09:14:27;17.35;87.41
73133;DHT22;61320;52.008;4.530;2023-08-06T09:16:53;17.38;87.11
73133;DHT22;61320;52.008;4.530;2023-08-06T09:19:19;17.45;87.39
73133;DHT22;61320;52.008;4.530;2023-08-06T09:21:45;17.51;87.01
73133;DHT22;61320;52.008;4.530;2023-08-06T09:26:43;17.75;87.02
73133;DHT22;61320;52.008;4.530;2023-08-06T09:29:10;17.69;86.42
73133;DHT22;61320;52.008;4.530;2023-08-06T09:34:26;17.68;86.60
73133;DHT22;61320;52.008;4.530;2023-08-06T09:36:53;17.80;86.99
73133;DHT22;61320;52.008;4.530;2023-08-06T10:23:36;18.87;84.21
73133;DHT22;61320;52.008;4.530;2023-08-06T10:26:05;18.84;83.72
73133;DHT22;61320;52.008;4.530;2023-08-06T10:28:36;18.78;83.36
73133;DHT22;61320;52.008;4.530;2023-08-06T10:31:02;18.76;84.13
73133;DHT22;61320;52.008;4.530;2023-08-06T10:33:47;18.76;84.86
73133;DHT22;61320;52.008;4.530;2023-08-06T10:36:14;18.78;84.17
73133;DHT22;61320;52.008;4.530;2023-08-06T10:38:50;18.69;83.74
73133;DHT22;61320;52.008;4.530;2023-08-06T10:41:23;18.68;83.47
73133;DHT22;61320;52.008;4.530;2023-08-06T10:43:49;18.84;83.08
73133;DHT22;61320;52.008;4.530;2023-08-06T10:46:23;18.92;83.38
73133;DHT22;61320;52.008;4.530;2023-08-06T10:48:49;19.02;82.66
73133;DHT22;61320;52.008;4.530;2023-08-06T10:51:15;19.05;82.67
73133;DHT22;61320;52.008;4.530;2023-08-06T10:53:47;19.08;82.47
73133;DHT22;61320;52.008;4.530;2023-08-06T10:56:23;19.29;82.75
73133;DHT22;61320;52.008;4.530;2023-08-06T10:58:50;19.81;83.06
73133;DHT22;61320;52.008;4.530;2023-08-06T11:01:17;20.39;82.02
73133;DHT22;61320;52.008;4.530;2023-08-06T12:08:01;29.52;52.32
73133;DHT22;61320;52.008;4.530;2023-08-06T12:10:31;29.07;53.64
73133;DHT22;61320;52.008;4.530;2023-08-06T12:12:56;28.01;52.91
73133;DHT22;61320;52.008;4.530;2023-08-06T12:44:39;23.09;62.71
73133;DHT22;61320;52.008;4.530;2023-08-06T12:47:04;22.88;65.76
73133;DHT22;61320;52.008;4.530;2023-08-06T12:49:30;22.69;67.27
73133;DHT22;61320;52.008;4.530;2023-08-06T12:51:57;22.57;64.27
73133;DHT22;61320;52.008;4.530;2023-08-06T12:56:49;22.21;62.99
73133;DHT22;61320;52.008;4.530;2023-08-06T12:59:16;22.27;66.83
73133;DHT22;61320;52.008;4.530;2023-08-06T13:01:43;22.48;68.07
73133;DHT22;61320;52.008;4.530;2023-08-06T13:04:10;22.45;65.42
73133;DHT22;61320;52.008;4.530;2023-08-06T13:06:36;22.37;67.28
73133;DHT22;61320;52.008;4.530;2023-08-06T13:09:12;22.17;65.14
73133;DHT22;61320;52.008;4.530;2023-08-06T13:11:41;21.94;65.81
73133;DHT22;61320;52.008;4.530;2023-08-06T13:14:12;21.72;65.75
73133;DHT22;61320;52.008;4.530;2023-08-06T13:16:40;21.58;68.69
73133;DHT22;61320;52.008;4.530;2023-08-06T13:19:06;21.38;66.15
73133;DHT22;61320;52.008;4.530;2023-08-06T13:21:34;21.37;66.74
73133;DHT22;61320;52.008;4.530;2023-08-06T13:24:03;21.25;67.20
73133;DHT22;61320;52.008;4.530;2023-08-06T13:28:56;20.95;66.17
73133;DHT22;61320;52.008;4.530;2023-08-06T13:31:21;20.95;68.14
73133;DHT22;61320;52.008;4.530;2023-08-06T13:33:47;20.95;67.73
73133;DHT22;61320;52.008;4.530;2023-08-06T13:36:13;20.83;66.68
73133;DHT22;61320;52.008;4.530;2023-08-06T13:38:39;20.67;68.31
73133;DHT22;61320;52.008;4.530;2023-08-06T13:41:04;20.52;68.45
73133;DHT22;61320;52.008;4.530;2023-08-06T13:43:31;20.45;69.94
73133;DHT22;61320;52.008;4.530;2023-08-06T13:45:56;20.53;71.68
73133;DHT22;61320;52.008;4.530;2023-08-06T13:48:22;20.74;70.95
73133;DHT22;61320;52.008;4.530;2023-08-06T13:50:48;20.87;67.66
73133;DHT22;61320;52.008;4.530;2023-08-06T13:53:14;20.94;68.56
73133;DHT22;61320;52.008;4.530;2023-08-06T13:55:39;20.94;68.55
73133;DHT22;61320;52.008;4.530;2023-08-06T13:58:04;20.98;70.64
73133;DHT22;61320;52.008;4.530;2023-08-06T14:00:30;20.93;71.45
73133;DHT22;61320;52.008;4.530;2023-08-06T14:02:55;20.60;73.15
73133;DHT22;61320;52.008;4.530;2023-08-06T14:05:21;20.22;75.55
73133;DHT22;61320;52.008;4.530;2023-08-06T14:10:12;19.34;76.86
73133;DHT22;61320;52.008;4.530;2023-08-06T14:12:37;19.20;78.47
73133;DHT22;61320;52.008;4.530;2023-08-06T14:15:03;19.05;78.02
73133;DHT22;61320;52.008;4.530;2023-08-06T14:17:29;18.88;79.61
73133;DHT22;61320;52.008;4.530;2023-08-06T14:22:21;18.34;79.29
73133;DHT22;61320;52.008;4.530;2023-08-06T14:32:03;17.72;81.81
73133;DHT22;61320;52.008;4.530;2023-08-06T14:34:29;17.62;82.30
73133;DHT22;61320;52.008;4.530;2023-08-06T14:36:54;17.55;82.61
73133;DHT22;61320;52.008;4.530;2023-08-06T14:39:19;17.58;83.21
73133;DHT22;61320;52.008;4.530;2023-08-06T14:41:45;17.68;83.43
73133;DHT22;61320;52.008;4.530;2023-08-06T14:44:10;17.69;83.67
73133;DHT22;61320;52.008;4.530;2023-08-06T14:46:36;17.73;83.47
73133;DHT22;61320;52.008;4.530;2023-08-06T14:49:02;17.82;84.01
73133;DHT22;61320;52.008;4.530;2023-08-06T14:51:28;17.92;84.06
73133;DHT22;61320;52.008;4.530;2023-08-06T14:53:53;17.93;83.49
73133;DHT22;61320;52.008;4.530;2023-08-06T14:56:19;17.97;83.18
73133;DHT22;61320;52.008;4.530;2023-08-06T14:58:44;17.97;83.16
73133;DHT22;61320;52.008;4.530;2023-08-06T15:01:10;17.96;82.76
73133;DHT22;61320;52.008;4.530;2023-08-06T15:03:36;17.83;83.09
73133;DHT22;61320;52.008;4.530;2023-08-06T15:06:01;17.71;83.14
73133;DHT22;61320;52.008;4.530;2023-08-06T15:08:27;17.59;83.24
73133;DHT22;61320;52.008;4.530;2023-08-06T15:10:53;17.58;83.37
73133;DHT22;61320;52.008;4.530;2023-08-06T15:13:19;17.61;83.05
73133;DHT22;61320;52.008;4.530;2023-08-06T15:15:47;17.73;83.65
73133;DHT22;61320;52.008;4.530;2023-08-06T15:18:12;17.78;83.54
73133;DHT22;61320;52.008;4.530;2023-08-06T15:20:38;17.85;83.43
73133;DHT22;61320;52.008;4.530;2023-08-06T15:23:03;17.96;83.64
73133;DHT22;61320;52.008;4.530;2023-08-06T15:25:29;18.07;83.50
73133;DHT22;61320;52.008;4.530;2023-08-06T15:27:54;18.14;82.90
73133;DHT22;61320;52.008;4.530;2023-08-06T15:30:20;18.13;82.65
73133;DHT22;61320;52.008;4.530;2023-08-06T15:32:46;18.09;82.30
73133;DHT22;61320;52.008;4.530;2023-08-06T15:35:13;17.92;81.22
73133;DHT22;61320;52.008;4.530;2023-08-06T15:37:38;17.69;80.62
73133;DHT22;61320;52.008;4.530;2023-08-06T15:40:05;17.42;80.74
73133;DHT22;61320;52.008;4.530;2023-08-06T15:44:56;17.14;82.51
73133;DHT22;61320;52.008;4.530;2023-08-06T15:47:21;17.17;82.47
73133;DHT22;61320;52.008;4.530;2023-08-06T15:59:31;17.11;83.23
73133;DHT22;61320;52.008;4.530;2023-08-06T16:01:58;17.22;82.85
73133;DHT22;61320;52.008;4.530;2023-08-06T16:11:41;17.30;81.54
73133;DHT22;61320;52.008;4.530;2023-08-06T16:14:07;17.32;82.00
73133;DHT22;61320;52.008;4.530;2023-08-06T16:16:33;17.39;82.56
73133;DHT22;61320;52.008;4.530;2023-08-06T16:19:00;17.46;81.21
73133;DHT22;61320;52.008;4.530;2023-08-06T16:21:26;17.48;81.41
73133;DHT22;61320;52.008;4.530;2023-08-06T16:23:52;17.49;81.28
73133;DHT22;61320;52.008;4.530;2023-08-06T16:33:36;17.53;78.20
73133;DHT22;61320;52.008;4.530;2023-08-06T16:38:31;17.34;79.75
73133;DHT22;61320;52.008;4.530;2023-08-06T16:40:57;17.24;78.55
73133;DHT22;61320;52.008;4.530;2023-08-06T16:43:23;17.17;79.83
73133;DHT22;61320;52.008;4.530;2023-08-06T16:45:51;17.11;78.52
73133;DHT22;61320;52.008;4.530;2023-08-06T16:48:17;17.12;79.43
73133;DHT22;61320;52.008;4.530;2023-08-06T16:50:45;17.17;80.43
73133;DHT22;61320;52.008;4.530;2023-08-06T16:53:11;17.22;80.18
73133;DHT22;61320;52.008;4.530;2023-08-06T16:55:36;17.21;80.74
73133;DHT22;61320;52.008;4.530;2023-08-06T16:58:02;17.22;80.29
73133;DHT22;61320;52.008;4.530;2023-08-06T17:00:27;17.27;80.49
73133;DHT22;61320;52.008;4.530;2023-08-06T17:02:53;17.31;80.40
73133;DHT22;61320;52.008;4.530;2023-08-06T17:05:18;17.34;81.00
73133;DHT22;61320;52.008;4.530;2023-08-06T17:07:44;17.35;80.87
73133;DHT22;61320;52.008;4.530;2023-08-06T17:10:13;17.39;80.01
73133;DHT22;61320;52.008;4.530;2023-08-06T17:12:39;17.36;78.22
73133;DHT22;61320;52.008;4.530;2023-08-06T17:15:04;17.38;79.77
73133;DHT22;61320;52.008;4.530;2023-08-06T17:17:30;17.34;77.69
73133;DHT22;61320;52.008;4.530;2023-08-06T17:19:56;17.28;78.65
73133;DHT22;61320;52.008;4.530;2023-08-06T17:22:21;17.27;78.96
73133;DHT22;61320;52.008;4.530;2023-08-06T17:24:46;17.30;79.06
73133;DHT22;61320;52.008;4.530;2023-08-06T17:27:12;17.25;78.06
73133;DHT22;61320;52.008;4.530;2023-08-06T17:29:37;17.24;78.71
73133;DHT22;61320;52.008;4.530;2023-08-06T17:32:04;17.18;77.18
73133;DHT22;61320;52.008;4.530;2023-08-06T17:34:29;17.10;76.05
73133;DHT22;61320;52.008;4.530;2023-08-06T17:36:55;17.07;78.34
73133;DHT22;61320;52.008;4.530;2023-08-06T17:39:20;17.06;79.30
73133;DHT22;61320;52.008;4.530;2023-08-06T17:44:13;17.03;78.11
73133;DHT22;61320;52.008;4.530;2023-08-06T17:46:38;16.99;77.75
73133;DHT22;61320;52.008;4.530;2023-08-06T17:49:04;16.93;78.32
73133;DHT22;61320;52.008;4.530;2023-08-06T17:51:29;16.90;77.72
73133;DHT22;61320;52.008;4.530;2023-08-06T17:53:55;16.83;77.66
73133;DHT22;61320;52.008;4.530;2023-08-06T17:56:20;16.80;77.81
73133;DHT22;61320;52.008;4.530;2023-08-06T17:58:45;16.77;75.97
73133;DHT22;61320;52.008;4.530;2023-08-06T18:01:11;16.72;77.30
73133;DHT22;61320;52.008;4.530;2023-08-06T18:03:36;16.69;78.19
73133;DHT22;61320;52.008;4.530;2023-08-06T18:30:20;15.95;83.33
73133;DHT22;61320;52.008;4.530;2023-08-06T18:32:46;15.97;83.46
73133;DHT22;61320;52.008;4.530;2023-08-06T18:35:12;15.98;83.70
73133;DHT22;61320;52.008;4.530;2023-08-06T18:37:37;15.98;83.42
73133;DHT22;61320;52.008;4.530;2023-08-06T18:40:08;15.94;82.86
73133;DHT22;61320;52.008;4.530;2023-08-06T18:42:34;15.90;83.31
73133;DHT22;61320;52.008;4.530;2023-08-06T18:45:00;15.84;83.29
73133;DHT22;61320;52.008;4.530;2023-08-06T18:47:26;15.80;83.66
73133;DHT22;61320;52.008;4.530;2023-08-06T18:49:52;15.78;83.67
73133;DHT22;61320;52.008;4.530;2023-08-06T18:52:18;15.74;83.46
73133;DHT22;61320;52.008;4.530;2023-08-06T18:54:43;15.73;83.07
73133;DHT22;61320;52.008;4.530;2023-08-06T18:57:09;15.66;83.48
73133;DHT22;61320;52.008;4.530;2023-08-06T18:59:35;15.64;82.95
73133;DHT22;61320;52.008;4.530;2023-08-06T19:04:26;15.58;82.12
73133;DHT22;61320;52.008;4.530;2023-08-06T19:06:52;15.53;83.23
73133;DHT22;61320;52.008;4.530;2023-08-06T19:09:19;15.51;82.84
73133;DHT22;61320;52.008;4.530;2023-08-06T19:11:44;15.50;82.67
73133;DHT22;61320;52.008;4.530;2023-08-06T19:14:10;15.49;82.89
73133;DHT22;61320;52.008;4.530;2023-08-06T19:16:37;15.46;82.96
73133;DHT22;61320;52.008;4.530;2023-08-06T19:19:02;15.46;82.26
73133;DHT22;61320;52.008;4.530;2023-08-06T19:21:29;15.43;82.78
73133;DHT22;61320;52.008;4.530;2023-08-06T19:23:54;15.44;82.74
73133;DHT22;61320;52.008;4.530;2023-08-06T19:26:22;15.44;82.64
73133;DHT22;61320;52.008;4.530;2023-08-06T19:28:48;15.43;82.62
73133;DHT22;61320;52.008;4.530;2023-08-06T19:31:13;15.42;83.18